sensor_id;sensor_type;location;lat;lon;timestamp;P1;durP1;ratioP1;P2;durP2;ratioP2
31368;SDS011;18004;48.416;10.066;2023-11-19T00:01:22;5.38;;;3.55;;
31368;SDS011;18004;48.416;10.066;2023-11-19T00:03:48;10.20;;;2.03;;
31368;SDS011;18004;48.416;10.066;2023-11-19T00:06:15;3.60;;;2.17;;
31368;SDS011;18004;48.416;10.066;2023-11-19T00:08:42;2.85;;;2.08;;
31368;SDS011;18004;48.416;10.066;2023-11-19T00:11:09;2.60;;;1.92;;
31368;SDS011;18004;48.416;10.066;2023-11-19T00:13:34;3.65;;;1.95;;
31368;SDS011;18004;48.416;10.066;2023-11-19T00:16:00;2.83;;;1.75;;
31368;SDS011;18004;48.416;10.066;2023-11-19T00:18:26;3.35;;;2.33;;
31368;SDS011;18004;48.416;10.066;2023-11-19T00:20:52;5.60;;;2.95;;
31368;SDS011;18004;48.416;10.066;2023-11-19T00:23:17;5.47;;;2.83;;
31368;SDS011;18004;48.416;10.066;2023-11-19T00:25:43;4.50;;;2.33;;
31368;SDS011;18004;48.416;10.066;2023-11-19T00:28:09;5.57;;;2.60;;
31368;SDS011;18004;48.416;10.066;2023-11-19T00:30:35;4.30;;;2.47;;
31368;SDS011;18004;48.416;10.066;2023-11-19T00:33:01;8.35;;;3.08;;
31368;SDS011;18004;48.416;10.066;2023-11-19T00:35:26;2.42;;;1.63;;
31368;SDS011;18004;48.416;10.066;2023-11-19T00:37:52;1.83;;;1.55;;
31368;SDS011;18004;48.416;10.066;2023-11-19T00:40:19;4.55;;;2.15;;
31368;SDS011;18004;48.416;10.066;2023-11-19T00:42:48;4.45;;;1.60;;
31368;SDS011;18004;48.416;10.066;2023-11-19T00:45:13;3.70;;;2.40;;
31368;SDS011;18004;48.416;10.066;2023-11-19T00:47:39;2.95;;;1.58;;
31368;SDS011;18004;48.416;10.066;2023-11-19T00:50:05;3.92;;;2.15;;
31368;SDS011;18004;48.416;10.066;2023-11-19T00:52:34;3.70;;;2.10;;
31368;SDS011;18004;48.416;10.066;2023-11-19T00:55:01;4.60;;;2.72;;
31368;SDS011;18004;48.416;10.066;2023-11-19T00:57:27;7.55;;;3.45;;
31368;SDS011;18004;48.416;10.066;2023-11-19T00:59:52;19.13;;;5.28;;
31368;SDS011;18004;48.416;10.066;2023-11-19T01:02:18;5.22;;;2.95;;
31368;SDS011;18004;48.416;10.066;2023-11-19T01:04:44;4.53;;;2.38;;
31368;SDS011;18004;48.416;10.066;2023-11-19T01:07:10;6.22;;;2.80;;
31368;SDS011;18004;48.416;10.066;2023-11-19T01:09:38;2.78;;;1.65;;
31368;SDS011;18004;48.416;10.066;2023-11-19T01:12:04;2.97;;;2.15;;
31368;SDS011;18004;48.416;10.066;2023-11-19T01:14:30;2.75;;;2.03;;
31368;SDS011;18004;48.416;10.066;2023-11-19T01:16:56;6.57;;;2.28;;
31368;SDS011;18004;48.416;10.066;2023-11-19T01:19:22;4.53;;;2.53;;
31368;SDS011;18004;48.416;10.066;2023-11-19T01:21:50;3.25;;;2.42;;
31368;SDS011;18004;48.416;10.066;2023-11-19T01:24:15;3.30;;;2.17;;
31368;SDS011;18004;48.416;10.066;2023-11-19T01:26:41;2.63;;;2.13;;
31368;SDS011;18004;48.416;10.066;2023-11-19T01:29:13;2.45;;;2.25;;
31368;SDS011;18004;48.416;10.066;2023-11-19T01:31:41;4.45;;;2.45;;
31368;SDS011;18004;48.416;10.066;2023-11-19T01:34:07;3.97;;;2.28;;
31368;SDS011;18004;48.416;10.066;2023-11-19T01:36:33;2.95;;;2.45;;
31368;SDS011;18004;48.416;10.066;2023-11-19T01:38:59;3.20;;;2.60;;
31368;SDS011;18004;48.416;10.066;2023-11-19T01:41:25;2.28;;;2.08;;
31368;SDS011;18004;48.416;10.066;2023-11-19T01:43:51;4.35;;;2.17;;
31368;SDS011;18004;48.416;10.066;2023-11-19T01:46:17;2.10;;;1.90;;
31368;SDS011;18004;48.416;10.066;2023-11-19T01:48:43;3.85;;;2.38;;
31368;SDS011;18004;48.416;10.066;2023-11-19T01:51:11;2.15;;;1.95;;
31368;SDS011;18004;48.416;10.066;2023-11-19T01:53:38;4.10;;;2.38;;
31368;SDS011;18004;48.416;10.066;2023-11-19T01:56:08;6.80;;;2.08;;
31368;SDS011;18004;48.416;10.066;2023-11-19T01:58:36;3.65;;;2.33;;
31368;SDS011;18004;48.416;10.066;2023-11-19T02:01:04;2.20;;;2.00;;
31368;SDS011;18004;48.416;10.066;2023-11-19T02:03:32;2.40;;;2.20;;
31368;SDS011;18004;48.416;10.066;2023-11-19T02:05:58;2.83;;;2.30;;
31368;SDS011;18004;48.416;10.066;2023-11-19T02:08:28;3.38;;;2.50;;
31368;SDS011;18004;48.416;10.066;2023-11-19T02:10:54;3.22;;;2.53;;
31368;SDS011;18004;48.416;10.066;2023-11-19T02:13:27;3.35;;;2.58;;
31368;SDS011;18004;48.416;10.066;2023-11-19T02:15:54;3.53;;;2.53;;
31368;SDS011;18004;48.416;10.066;2023-11-19T02:18:23;2.60;;;2.35;;
31368;SDS011;18004;48.416;10.066;2023-11-19T02:20:53;5.38;;;2.95;;
31368;SDS011;18004;48.416;10.066;2023-11-19T02:23:19;5.18;;;3.03;;
31368;SDS011;18004;48.416;10.066;2023-11-19T02:28:36;3.05;;;2.53;;
31368;SDS011;18004;48.416;10.066;2023-11-19T02:31:03;3.10;;;2.80;;
31368;SDS011;18004;48.416;10.066;2023-11-19T02:33:31;4.10;;;3.10;;
31368;SDS011;18004;48.416;10.066;2023-11-19T02:35:56;3.70;;;2.50;;
31368;SDS011;18004;48.416;10.066;2023-11-19T02:38:22;5.72;;;3.17;;
31368;SDS011;18004;48.416;10.066;2023-11-19T02:40:48;6.97;;;3.30;;
31368;SDS011;18004;48.416;10.066;2023-11-19T02:43:14;5.00;;;2.90;;
31368;SDS011;18004;48.416;10.066;2023-11-19T02:45:40;5.38;;;2.83;;
31368;SDS011;18004;48.416;10.066;2023-11-19T02:48:07;3.22;;;2.30;;
31368;SDS011;18004;48.416;10.066;2023-11-19T02:50:33;2.83;;;2.08;;
31368;SDS011;18004;48.416;10.066;2023-11-19T02:53:02;3.22;;;2.70;;
31368;SDS011;18004;48.416;10.066;2023-11-19T02:55:28;3.72;;;2.90;;
31368;SDS011;18004;48.416;10.066;2023-11-19T02:57:59;2.70;;;2.50;;
31368;SDS011;18004;48.416;10.066;2023-11-19T03:00:25;2.10;;;1.90;;
31368;SDS011;18004;48.416;10.066;2023-11-19T03:03:00;3.60;;;2.15;;
31368;SDS011;18004;48.416;10.066;2023-11-19T03:05:43;5.93;;;2.45;;
31368;SDS011;18004;48.416;10.066;2023-11-19T03:08:09;3.00;;;2.20;;
31368;SDS011;18004;48.416;10.066;2023-11-19T03:10:35;3.22;;;2.63;;
31368;SDS011;18004;48.416;10.066;2023-11-19T03:13:01;3.08;;;2.20;;
31368;SDS011;18004;48.416;10.066;2023-11-19T03:15:27;4.43;;;2.17;;
31368;SDS011;18004;48.416;10.066;2023-11-19T03:17:53;2.90;;;2.13;;
31368;SDS011;18004;48.416;10.066;2023-11-19T03:20:19;3.10;;;2.10;;
31368;SDS011;18004;48.416;10.066;2023-11-19T03:22:46;2.28;;;1.85;;
31368;SDS011;18004;48.416;10.066;2023-11-19T03:25:11;3.05;;;1.98;;
31368;SDS011;18004;48.416;10.066;2023-11-19T03:27:38;3.15;;;2.50;;
31368;SDS011;18004;48.416;10.066;2023-11-19T03:30:05;3.67;;;2.25;;
31368;SDS011;18004;48.416;10.066;2023-11-19T03:32:32;3.22;;;2.08;;
31368;SDS011;18004;48.416;10.066;2023-11-19T03:34:58;2.67;;;2.10;;
31368;SDS011;18004;48.416;10.066;2023-11-19T03:37:25;3.92;;;2.50;;
31368;SDS011;18004;48.416;10.066;2023-11-19T03:39:51;2.47;;;1.90;;
31368;SDS011;18004;48.416;10.066;2023-11-19T03:42:19;3.47;;;2.55;;
31368;SDS011;18004;48.416;10.066;2023-11-19T03:44:46;7.55;;;2.65;;
31368;SDS011;18004;48.416;10.066;2023-11-19T03:47:11;3.33;;;2.30;;
31368;SDS011;18004;48.416;10.066;2023-11-19T03:49:37;3.22;;;2.17;;
31368;SDS011;18004;48.416;10.066;2023-11-19T03:52:03;2.88;;;2.35;;
31368;SDS011;18004;48.416;10.066;2023-11-19T03:54:31;3.70;;;2.55;;
31368;SDS011;18004;48.416;10.066;2023-11-19T03:56:58;3.78;;;2.17;;
31368;SDS011;18004;48.416;10.066;2023-11-19T03:59:25;2.80;;;2.47;;
31368;SDS011;18004;48.416;10.066;2023-11-19T04:01:51;2.90;;;2.35;;
31368;SDS011;18004;48.416;10.066;2023-11-19T04:04:18;2.83;;;2.20;;
31368;SDS011;18004;48.416;10.066;2023-11-19T04:06:44;2.75;;;2.28;;
31368;SDS011;18004;48.416;10.066;2023-11-19T04:09:10;3.00;;;2.30;;
31368;SDS011;18004;48.416;10.066;2023-11-19T04:11:36;2.83;;;2.33;;
31368;SDS011;18004;48.416;10.066;2023-11-19T04:14:01;3.78;;;3.05;;
31368;SDS011;18004;48.416;10.066;2023-11-19T04:16:27;3.03;;;2.63;;
31368;SDS011;18004;48.416;10.066;2023-11-19T04:18:54;4.63;;;2.97;;
31368;SDS011;18004;48.416;10.066;2023-11-19T04:21:19;4.20;;;3.15;;
31368;SDS011;18004;48.416;10.066;2023-11-19T04:23:45;3.42;;;2.40;;
31368;SDS011;18004;48.416;10.066;2023-11-19T04:26:11;4.05;;;3.22;;
31368;SDS011;18004;48.416;10.066;2023-11-19T04:28:36;2.53;;;2.33;;
31368;SDS011;18004;48.416;10.066;2023-11-19T04:31:02;3.10;;;2.75;;
31368;SDS011;18004;48.416;10.066;2023-11-19T04:33:28;3.17;;;2.80;;
31368;SDS011;18004;48.416;10.066;2023-11-19T04:35:54;3.55;;;2.72;;
31368;SDS011;18004;48.416;10.066;2023-11-19T04:38:20;4.50;;;3.00;;
31368;SDS011;18004;48.416;10.066;2023-11-19T04:40:45;5.93;;;3.10;;
31368;SDS011;18004;48.416;10.066;2023-11-19T04:43:11;4.32;;;2.90;;
31368;SDS011;18004;48.416;10.066;2023-11-19T04:45:38;3.88;;;3.00;;
31368;SDS011;18004;48.416;10.066;2023-11-19T04:48:05;2.92;;;2.58;;
31368;SDS011;18004;48.416;10.066;2023-11-19T04:50:30;3.45;;;2.50;;
31368;SDS011;18004;48.416;10.066;2023-11-19T04:52:56;4.55;;;3.20;;
31368;SDS011;18004;48.416;10.066;2023-11-19T04:55:22;4.63;;;3.35;;
31368;SDS011;18004;48.416;10.066;2023-11-19T04:57:48;4.63;;;3.08;;
31368;SDS011;18004;48.416;10.066;2023-11-19T05:00:14;3.80;;;2.92;;
31368;SDS011;18004;48.416;10.066;2023-11-19T05:02:39;2.92;;;2.63;;
31368;SDS011;18004;48.416;10.066;2023-11-19T05:05:05;3.72;;;3.20;;
31368;SDS011;18004;48.416;10.066;2023-11-19T05:07:31;5.90;;;2.90;;
31368;SDS011;18004;48.416;10.066;2023-11-19T05:09:57;3.30;;;2.80;;
31368;SDS011;18004;48.416;10.066;2023-11-19T05:12:23;3.65;;;2.80;;
31368;SDS011;18004;48.416;10.066;2023-11-19T05:14:49;3.53;;;3.17;;
31368;SDS011;18004;48.416;10.066;2023-11-19T05:17:19;4.45;;;2.80;;
31368;SDS011;18004;48.416;10.066;2023-11-19T05:19:45;6.93;;;3.97;;
31368;SDS011;18004;48.416;10.066;2023-11-19T05:22:11;3.95;;;2.95;;
31368;SDS011;18004;48.416;10.066;2023-11-19T05:24:38;4.03;;;3.40;;
31368;SDS011;18004;48.416;10.066;2023-11-19T05:27:04;4.45;;;2.97;;
31368;SDS011;18004;48.416;10.066;2023-11-19T05:29:32;5.03;;;3.45;;
31368;SDS011;18004;48.416;10.066;2023-11-19T05:31:57;7.68;;;3.38;;
31368;SDS011;18004;48.416;10.066;2023-11-19T05:34:23;3.15;;;2.78;;
31368;SDS011;18004;48.416;10.066;2023-11-19T05:36:50;5.00;;;3.10;;
31368;SDS011;18004;48.416;10.066;2023-11-19T05:39:16;7.60;;;3.03;;
31368;SDS011;18004;48.416;10.066;2023-11-19T05:41:43;4.18;;;3.20;;
31368;SDS011;18004;48.416;10.066;2023-11-19T05:44:09;3.95;;;3.00;;
31368;SDS011;18004;48.416;10.066;2023-11-19T05:46:35;4.45;;;2.85;;
31368;SDS011;18004;48.416;10.066;2023-11-19T05:49:05;4.18;;;3.13;;
31368;SDS011;18004;48.416;10.066;2023-11-19T05:51:31;4.93;;;3.28;;
31368;SDS011;18004;48.416;10.066;2023-11-19T05:53:57;5.22;;;3.13;;
31368;SDS011;18004;48.416;10.066;2023-11-19T05:56:23;4.50;;;3.30;;
31368;SDS011;18004;48.416;10.066;2023-11-19T05:58:48;4.32;;;3.25;;
31368;SDS011;18004;48.416;10.066;2023-11-19T06:01:14;6.38;;;3.47;;
31368;SDS011;18004;48.416;10.066;2023-11-19T06:03:40;5.32;;;3.63;;
31368;SDS011;18004;48.416;10.066;2023-11-19T06:06:08;3.40;;;3.10;;
31368;SDS011;18004;48.416;10.066;2023-11-19T06:08:34;9.32;;;4.03;;
31368;SDS011;18004;48.416;10.066;2023-11-19T06:11:00;4.60;;;3.65;;
31368;SDS011;18004;48.416;10.066;2023-11-19T06:13:26;5.18;;;3.67;;
31368;SDS011;18004;48.416;10.066;2023-11-19T06:15:52;5.63;;;4.15;;
31368;SDS011;18004;48.416;10.066;2023-11-19T06:18:18;10.05;;;4.53;;
31368;SDS011;18004;48.416;10.066;2023-11-19T06:20:45;5.28;;;3.85;;
31368;SDS011;18004;48.416;10.066;2023-11-19T06:23:14;6.70;;;4.45;;
31368;SDS011;18004;48.416;10.066;2023-11-19T06:25:40;6.50;;;4.43;;
31368;SDS011;18004;48.416;10.066;2023-11-19T06:28:06;9.13;;;4.25;;
31368;SDS011;18004;48.416;10.066;2023-11-19T06:30:32;3.50;;;2.78;;
31368;SDS011;18004;48.416;10.066;2023-11-19T06:32:58;8.13;;;3.22;;
31368;SDS011;18004;48.416;10.066;2023-11-19T06:35:24;4.90;;;3.35;;
31368;SDS011;18004;48.416;10.066;2023-11-19T06:37:49;4.65;;;3.28;;
31368;SDS011;18004;48.416;10.066;2023-11-19T06:40:15;4.85;;;3.42;;
31368;SDS011;18004;48.416;10.066;2023-11-19T06:42:41;3.58;;;3.15;;
31368;SDS011;18004;48.416;10.066;2023-11-19T06:45:07;5.57;;;4.00;;
31368;SDS011;18004;48.416;10.066;2023-11-19T06:47:34;7.03;;;3.85;;
31368;SDS011;18004;48.416;10.066;2023-11-19T06:50:00;4.43;;;3.70;;
31368;SDS011;18004;48.416;10.066;2023-11-19T06:52:26;7.10;;;4.00;;
31368;SDS011;18004;48.416;10.066;2023-11-19T06:54:52;5.80;;;3.80;;
31368;SDS011;18004;48.416;10.066;2023-11-19T06:57:20;6.28;;;4.43;;
31368;SDS011;18004;48.416;10.066;2023-11-19T06:59:46;5.03;;;4.05;;
31368;SDS011;18004;48.416;10.066;2023-11-19T07:02:14;4.75;;;3.60;;
31368;SDS011;18004;48.416;10.066;2023-11-19T07:04:40;5.93;;;4.40;;
31368;SDS011;18004;48.416;10.066;2023-11-19T07:07:06;8.15;;;4.25;;
31368;SDS011;18004;48.416;10.066;2023-11-19T07:09:35;6.13;;;4.55;;
31368;SDS011;18004;48.416;10.066;2023-11-19T07:12:00;7.72;;;4.25;;
31368;SDS011;18004;48.416;10.066;2023-11-19T07:14:29;5.25;;;4.15;;
31368;SDS011;18004;48.416;10.066;2023-11-19T07:16:55;4.47;;;3.70;;
31368;SDS011;18004;48.416;10.066;2023-11-19T07:19:21;7.03;;;4.07;;
31368;SDS011;18004;48.416;10.066;2023-11-19T07:21:47;3.83;;;3.38;;
31368;SDS011;18004;48.416;10.066;2023-11-19T07:24:12;7.20;;;3.70;;
31368;SDS011;18004;48.416;10.066;2023-11-19T07:26:42;5.93;;;4.47;;
31368;SDS011;18004;48.416;10.066;2023-11-19T07:29:09;5.07;;;3.72;;
31368;SDS011;18004;48.416;10.066;2023-11-19T07:31:35;7.75;;;4.20;;
31368;SDS011;18004;48.416;10.066;2023-11-19T07:34:01;4.82;;;4.03;;
31368;SDS011;18004;48.416;10.066;2023-11-19T07:36:26;4.97;;;3.92;;
31368;SDS011;18004;48.416;10.066;2023-11-19T07:38:52;4.43;;;3.45;;
31368;SDS011;18004;48.416;10.066;2023-11-19T07:41:18;4.38;;;3.35;;
31368;SDS011;18004;48.416;10.066;2023-11-19T07:43:45;4.68;;;3.63;;
31368;SDS011;18004;48.416;10.066;2023-11-19T07:46:15;4.20;;;3.53;;
31368;SDS011;18004;48.416;10.066;2023-11-19T07:48:41;5.20;;;3.10;;
31368;SDS011;18004;48.416;10.066;2023-11-19T07:51:07;5.28;;;3.47;;
31368;SDS011;18004;48.416;10.066;2023-11-19T07:53:33;6.15;;;4.13;;
31368;SDS011;18004;48.416;10.066;2023-11-19T07:55:59;5.80;;;4.80;;
31368;SDS011;18004;48.416;10.066;2023-11-19T07:58:26;8.23;;;5.00;;
31368;SDS011;18004;48.416;10.066;2023-11-19T08:00:51;6.15;;;4.70;;
31368;SDS011;18004;48.416;10.066;2023-11-19T08:03:17;5.00;;;3.58;;
31368;SDS011;18004;48.416;10.066;2023-11-19T08:08:15;5.85;;;3.80;;
31368;SDS011;18004;48.416;10.066;2023-11-19T08:10:40;8.82;;;6.43;;
31368;SDS011;18004;48.416;10.066;2023-11-19T08:13:07;13.57;;;7.13;;
31368;SDS011;18004;48.416;10.066;2023-11-19T08:15:32;6.65;;;4.82;;
31368;SDS011;18004;48.416;10.066;2023-11-19T08:17:58;10.20;;;4.97;;
31368;SDS011;18004;48.416;10.066;2023-11-19T08:20:24;7.75;;;4.35;;
31368;SDS011;18004;48.416;10.066;2023-11-19T08:22:50;5.95;;;4.20;;
31368;SDS011;18004;48.416;10.066;2023-11-19T08:25:15;5.75;;;3.60;;
31368;SDS011;18004;48.416;10.066;2023-11-19T08:27:41;6.40;;;3.90;;
31368;SDS011;18004;48.416;10.066;2023-11-19T08:30:08;5.20;;;3.90;;
31368;SDS011;18004;48.416;10.066;2023-11-19T08:32:34;7.45;;;4.07;;
31368;SDS011;18004;48.416;10.066;2023-11-19T08:35:00;4.47;;;3.35;;
31368;SDS011;18004;48.416;10.066;2023-11-19T08:37:26;5.13;;;3.83;;
31368;SDS011;18004;48.416;10.066;2023-11-19T08:39:52;7.70;;;4.18;;
31368;SDS011;18004;48.416;10.066;2023-11-19T08:42:18;5.57;;;4.18;;
31368;SDS011;18004;48.416;10.066;2023-11-19T08:44:48;6.90;;;4.38;;
31368;SDS011;18004;48.416;10.066;2023-11-19T08:47:15;5.80;;;3.63;;
31368;SDS011;18004;48.416;10.066;2023-11-19T08:49:43;4.82;;;3.65;;
31368;SDS011;18004;48.416;10.066;2023-11-19T08:52:09;5.35;;;3.58;;
31368;SDS011;18004;48.416;10.066;2023-11-19T08:54:36;5.43;;;3.60;;
31368;SDS011;18004;48.416;10.066;2023-11-19T08:57:02;5.22;;;3.65;;
31368;SDS011;18004;48.416;10.066;2023-11-19T08:59:29;5.75;;;4.13;;
31368;SDS011;18004;48.416;10.066;2023-11-19T09:01:55;4.30;;;3.33;;
31368;SDS011;18004;48.416;10.066;2023-11-19T09:04:21;4.80;;;3.72;;
31368;SDS011;18004;48.416;10.066;2023-11-19T09:06:58;4.03;;;3.15;;
31368;SDS011;18004;48.416;10.066;2023-11-19T09:09:24;5.45;;;3.80;;
31368;SDS011;18004;48.416;10.066;2023-11-19T09:11:50;10.32;;;4.00;;
31368;SDS011;18004;48.416;10.066;2023-11-19T09:14:16;7.60;;;3.22;;
31368;SDS011;18004;48.416;10.066;2023-11-19T09:16:43;3.25;;;2.83;;
31368;SDS011;18004;48.416;10.066;2023-11-19T09:19:09;5.55;;;3.85;;
31368;SDS011;18004;48.416;10.066;2023-11-19T09:21:35;5.72;;;2.90;;
31368;SDS011;18004;48.416;10.066;2023-11-19T09:24:04;5.65;;;3.58;;
31368;SDS011;18004;48.416;10.066;2023-11-19T09:26:30;3.78;;;2.78;;
31368;SDS011;18004;48.416;10.066;2023-11-19T09:28:56;4.70;;;3.10;;
31368;SDS011;18004;48.416;10.066;2023-11-19T09:31:22;5.72;;;2.85;;
31368;SDS011;18004;48.416;10.066;2023-11-19T09:33:47;3.42;;;2.50;;
31368;SDS011;18004;48.416;10.066;2023-11-19T09:36:13;5.15;;;3.15;;
31368;SDS011;18004;48.416;10.066;2023-11-19T09:38:39;3.25;;;2.50;;
31368;SDS011;18004;48.416;10.066;2023-11-19T09:41:06;3.75;;;3.05;;
31368;SDS011;18004;48.416;10.066;2023-11-19T09:43:37;4.75;;;2.22;;
31368;SDS011;18004;48.416;10.066;2023-11-19T09:46:05;3.20;;;2.40;;
31368;SDS011;18004;48.416;10.066;2023-11-19T09:48:36;7.88;;;4.07;;
31368;SDS011;18004;48.416;10.066;2023-11-19T09:51:04;8.32;;;4.82;;
31368;SDS011;18004;48.416;10.066;2023-11-19T09:53:30;5.85;;;3.90;;
31368;SDS011;18004;48.416;10.066;2023-11-19T09:56:04;6.38;;;3.22;;
31368;SDS011;18004;48.416;10.066;2023-11-19T09:58:34;3.47;;;2.72;;
31368;SDS011;18004;48.416;10.066;2023-11-19T10:01:00;4.65;;;2.40;;
31368;SDS011;18004;48.416;10.066;2023-11-19T10:03:28;4.20;;;2.97;;
31368;SDS011;18004;48.416;10.066;2023-11-19T10:06:07;3.60;;;2.28;;
31368;SDS011;18004;48.416;10.066;2023-11-19T10:08:36;3.88;;;2.10;;
31368;SDS011;18004;48.416;10.066;2023-11-19T10:11:02;2.40;;;1.80;;
31368;SDS011;18004;48.416;10.066;2023-11-19T10:13:28;3.08;;;1.90;;
31368;SDS011;18004;48.416;10.066;2023-11-19T10:15:57;3.55;;;2.15;;
31368;SDS011;18004;48.416;10.066;2023-11-19T10:18:24;2.90;;;2.03;;
31368;SDS011;18004;48.416;10.066;2023-11-19T10:20:52;4.15;;;2.78;;
31368;SDS011;18004;48.416;10.066;2023-11-19T10:23:20;6.35;;;3.22;;
31368;SDS011;18004;48.416;10.066;2023-11-19T10:25:46;3.83;;;2.75;;
31368;SDS011;18004;48.416;10.066;2023-11-19T10:28:12;12.77;;;5.35;;
31368;SDS011;18004;48.416;10.066;2023-11-19T10:30:41;18.08;;;6.20;;
31368;SDS011;18004;48.416;10.066;2023-11-19T10:35:50;22.13;;;7.97;;
31368;SDS011;18004;48.416;10.066;2023-11-19T10:38:18;30.80;;;11.98;;
31368;SDS011;18004;48.416;10.066;2023-11-19T10:40:44;6.00;;;2.88;;
31368;SDS011;18004;48.416;10.066;2023-11-19T10:43:10;7.70;;;3.03;;
31368;SDS011;18004;48.416;10.066;2023-11-19T10:45:38;6.60;;;3.60;;
31368;SDS011;18004;48.416;10.066;2023-11-19T10:48:05;2.38;;;1.63;;
31368;SDS011;18004;48.416;10.066;2023-11-19T10:50:35;7.97;;;2.38;;
31368;SDS011;18004;48.416;10.066;2023-11-19T10:53:01;1.98;;;1.25;;
31368;SDS011;18004;48.416;10.066;2023-11-19T10:55:31;2.28;;;1.60;;
31368;SDS011;18004;48.416;10.066;2023-11-19T10:58:03;1.95;;;1.00;;
31368;SDS011;18004;48.416;10.066;2023-11-19T11:00:33;2.10;;;1.58;;
31368;SDS011;18004;48.416;10.066;2023-11-19T11:03:16;2.13;;;1.30;;
31368;SDS011;18004;48.416;10.066;2023-11-19T11:05:43;1.08;;;0.95;;
31368;SDS011;18004;48.416;10.066;2023-11-19T11:08:12;2.60;;;1.30;;
31368;SDS011;18004;48.416;10.066;2023-11-19T11:10:50;1.17;;;1.08;;
31368;SDS011;18004;48.416;10.066;2023-11-19T11:13:22;1.10;;;1.00;;
31368;SDS011;18004;48.416;10.066;2023-11-19T11:15:49;1.70;;;1.10;;
31368;SDS011;18004;48.416;10.066;2023-11-19T11:18:16;1.80;;;1.20;;
31368;SDS011;18004;48.416;10.066;2023-11-19T11:20:46;2.20;;;1.35;;
31368;SDS011;18004;48.416;10.066;2023-11-19T11:26:42;4.80;;;1.30;;
31368;SDS011;18004;48.416;10.066;2023-11-19T11:29:08;1.60;;;1.08;;
31368;SDS011;18004;48.416;10.066;2023-11-19T11:34:41;1.95;;;1.20;;
31368;SDS011;18004;48.416;10.066;2023-11-19T11:37:27;1.73;;;1.13;;
31368;SDS011;18004;48.416;10.066;2023-11-19T11:40:03;1.00;;;0.88;;
31368;SDS011;18004;48.416;10.066;2023-11-19T11:42:35;1.17;;;0.85;;
31368;SDS011;18004;48.416;10.066;2023-11-19T11:45:05;1.00;;;0.88;;
31368;SDS011;18004;48.416;10.066;2023-11-19T11:55:24;0.80;;;0.77;;
31368;SDS011;18004;48.416;10.066;2023-11-19T11:58:20;3.67;;;1.60;;
31368;SDS011;18004;48.416;10.066;2023-11-19T12:00:47;1.60;;;1.15;;
31368;SDS011;18004;48.416;10.066;2023-11-19T12:03:14;1.45;;;0.90;;
31368;SDS011;18004;48.416;10.066;2023-11-19T12:05:40;1.50;;;1.08;;
31368;SDS011;18004;48.416;10.066;2023-11-19T12:08:08;3.17;;;1.20;;
31368;SDS011;18004;48.416;10.066;2023-11-19T12:10:46;3.47;;;2.35;;
31368;SDS011;18004;48.416;10.066;2023-11-19T12:13:12;3.30;;;1.50;;
31368;SDS011;18004;48.416;10.066;2023-11-19T12:18:23;0.95;;;0.82;;
31368;SDS011;18004;48.416;10.066;2023-11-19T12:20:49;1.30;;;0.90;;
31368;SDS011;18004;48.416;10.066;2023-11-19T12:23:15;1.52;;;0.95;;
31368;SDS011;18004;48.416;10.066;2023-11-19T12:25:41;1.40;;;0.88;;
31368;SDS011;18004;48.416;10.066;2023-11-19T12:28:11;0.60;;;0.60;;
31368;SDS011;18004;48.416;10.066;2023-11-19T12:30:38;0.63;;;0.63;;
31368;SDS011;18004;48.416;10.066;2023-11-19T12:33:07;0.52;;;0.47;;
31368;SDS011;18004;48.416;10.066;2023-11-19T12:35:40;0.82;;;0.50;;
31368;SDS011;18004;48.416;10.066;2023-11-19T12:38:08;0.93;;;0.50;;
31368;SDS011;18004;48.416;10.066;2023-11-19T12:41:05;0.40;;;0.40;;
31368;SDS011;18004;48.416;10.066;2023-11-19T12:43:32;0.85;;;0.50;;
31368;SDS011;18004;48.416;10.066;2023-11-19T12:45:59;1.83;;;0.77;;
31368;SDS011;18004;48.416;10.066;2023-11-19T12:48:25;0.75;;;0.65;;
31368;SDS011;18004;48.416;10.066;2023-11-19T12:50:52;1.83;;;0.60;;
31368;SDS011;18004;48.416;10.066;2023-11-19T12:53:23;0.75;;;0.70;;
31368;SDS011;18004;48.416;10.066;2023-11-19T12:55:50;0.65;;;0.50;;
31368;SDS011;18004;48.416;10.066;2023-11-19T12:58:33;0.60;;;0.60;;
31368;SDS011;18004;48.416;10.066;2023-11-19T13:01:04;0.65;;;0.40;;
31368;SDS011;18004;48.416;10.066;2023-11-19T13:03:36;0.45;;;0.45;;
31368;SDS011;18004;48.416;10.066;2023-11-19T13:06:03;0.40;;;0.40;;
31368;SDS011;18004;48.416;10.066;2023-11-19T13:08:44;0.40;;;0.40;;
31368;SDS011;18004;48.416;10.066;2023-11-19T13:11:13;0.90;;;0.32;;
31368;SDS011;18004;48.416;10.066;2023-11-19T13:14:02;0.65;;;0.40;;
31368;SDS011;18004;48.416;10.066;2023-11-19T13:16:29;0.43;;;0.40;;
31368;SDS011;18004;48.416;10.066;2023-11-19T13:18:59;0.82;;;0.60;;
31368;SDS011;18004;48.416;10.066;2023-11-19T13:24:00;0.75;;;0.63;;
31368;SDS011;18004;48.416;10.066;2023-11-19T13:26:29;0.93;;;0.65;;
31368;SDS011;18004;48.416;10.066;2023-11-19T13:28:54;1.77;;;0.80;;
31368;SDS011;18004;48.416;10.066;2023-11-19T13:31:20;0.55;;;0.45;;
31368;SDS011;18004;48.416;10.066;2023-11-19T13:33:47;1.45;;;0.55;;
31368;SDS011;18004;48.416;10.066;2023-11-19T13:36:13;1.55;;;0.50;;
31368;SDS011;18004;48.416;10.066;2023-11-19T13:38:39;2.17;;;0.30;;
31368;SDS011;18004;48.416;10.066;2023-11-19T13:41:07;0.30;;;0.30;;
31368;SDS011;18004;48.416;10.066;2023-11-19T13:43:37;1.02;;;0.50;;
31368;SDS011;18004;48.416;10.066;2023-11-19T13:46:03;0.38;;;0.38;;
31368;SDS011;18004;48.416;10.066;2023-11-19T13:48:29;0.40;;;0.40;;
31368;SDS011;18004;48.416;10.066;2023-11-19T13:50:55;0.75;;;0.40;;
31368;SDS011;18004;48.416;10.066;2023-11-19T13:53:21;0.65;;;0.50;;
31368;SDS011;18004;48.416;10.066;2023-11-19T13:55:48;0.60;;;0.60;;
31368;SDS011;18004;48.416;10.066;2023-11-19T13:58:14;0.30;;;0.30;;
31368;SDS011;18004;48.416;10.066;2023-11-19T14:00:41;0.75;;;0.40;;
31368;SDS011;18004;48.416;10.066;2023-11-19T14:03:08;5.05;;;0.40;;
31368;SDS011;18004;48.416;10.066;2023-11-19T14:05:37;2.30;;;0.25;;
31368;SDS011;18004;48.416;10.066;2023-11-19T14:08:03;0.25;;;0.20;;
31368;SDS011;18004;48.416;10.066;2023-11-19T14:10:37;0.25;;;0.25;;
31368;SDS011;18004;48.416;10.066;2023-11-19T14:13:08;0.30;;;0.30;;
31368;SDS011;18004;48.416;10.066;2023-11-19T14:15:34;0.40;;;0.30;;
31368;SDS011;18004;48.416;10.066;2023-11-19T14:18:01;0.32;;;0.20;;
31368;SDS011;18004;48.416;10.066;2023-11-19T14:20:28;0.52;;;0.40;;
31368;SDS011;18004;48.416;10.066;2023-11-19T14:22:54;0.80;;;0.30;;
31368;SDS011;18004;48.416;10.066;2023-11-19T14:25:22;3.65;;;0.20;;
31368;SDS011;18004;48.416;10.066;2023-11-19T14:27:48;1.63;;;0.63;;
31368;SDS011;18004;48.416;10.066;2023-11-19T14:30:14;1.08;;;0.77;;
31368;SDS011;18004;48.416;10.066;2023-11-19T14:32:41;0.40;;;0.40;;
31368;SDS011;18004;48.416;10.066;2023-11-19T14:35:09;3.83;;;0.40;;
31368;SDS011;18004;48.416;10.066;2023-11-19T14:37:35;0.30;;;0.30;;
31368;SDS011;18004;48.416;10.066;2023-11-19T14:40:02;0.15;;;0.15;;
31368;SDS011;18004;48.416;10.066;2023-11-19T14:42:32;0.15;;;0.15;;
31368;SDS011;18004;48.416;10.066;2023-11-19T14:44:58;0.93;;;0.52;;
31368;SDS011;18004;48.416;10.066;2023-11-19T14:47:24;0.47;;;0.40;;
31368;SDS011;18004;48.416;10.066;2023-11-19T14:49:50;0.60;;;0.40;;
31368;SDS011;18004;48.416;10.066;2023-11-19T14:52:16;7.18;;;0.65;;
31368;SDS011;18004;48.416;10.066;2023-11-19T14:54:42;0.20;;;0.20;;
31368;SDS011;18004;48.416;10.066;2023-11-19T14:57:08;0.35;;;0.30;;
31368;SDS011;18004;48.416;10.066;2023-11-19T14:59:34;1.17;;;0.40;;
31368;SDS011;18004;48.416;10.066;2023-11-19T15:02:00;0.40;;;0.30;;